Time;durP1;ratioP1;P1;durP2;ratioP2;P2;SDS_P1;SDS_P2;PMS_P1;PMS_P2;Temp;Humidity;BMP_temperature;BMP_pressure;BME280_temperature;BME280_humidity;BME280_pressure;Samples;Min_cycle;Max_cycle;Signal;HPM_P1;HPM_P2
2023/06/25 00:01:35;;;;;;;12.68;9.05;;;24.00;99.90;;;;;;5021132;28;20029;-91
2023/06/25 00:04:00;;;;;;;9.95;8.15;;;24.00;99.90;;;;;;5021120;28;20399;-90
2023/06/25 00:06:26;;;;;;;10.73;9.18;;;24.00;99.90;;;;;;5005116;28;20037;-94
2023/06/25 00:08:52;;;;;;;10.65;8.73;;;23.90;99.90;;;;;;5004894;28;20091;-94
2023/06/25 00:11:19;;;;;;;10.30;8.27;;;23.90;99.90;;;;;;5038443;28;20075;-93
2023/06/25 00:13:45;;;;;;;12.88;7.97;;;23.80;99.90;;;;;;5021024;28;20524;-93
2023/06/25 00:16:11;;;;;;;11.68;8.90;;;23.80;99.90;;;;;;5004707;28;20111;-93
2023/06/25 00:18:37;;;;;;;11.20;9.13;;;23.80;99.90;;;;;;5020962;28;20065;-95
2023/06/25 00:21:05;;;;;;;10.50;8.40;;;23.80;99.90;;;;;;5020843;28;20048;-93
2023/06/25 00:23:30;;;;;;;10.85;8.27;;;23.70;99.90;;;;;;5021836;28;20029;-93
2023/06/25 00:25:56;;;;;;;11.77;8.75;;;23.70;99.90;;;;;;5020824;28;20124;-93
2023/06/25 00:28:22;;;;;;;9.98;8.73;;;23.70;99.90;;;;;;5021042;28;20530;-91
2023/06/25 00:30:47;;;;;;;9.50;8.30;;;23.70;99.90;;;;;;5017415;28;20047;-90
2023/06/25 00:33:13;;;;;;;11.75;8.80;;;23.60;99.90;;;;;;5001296;28;20037;-91
2023/06/25 00:35:49;;;;;;;10.68;8.90;;;23.60;99.90;;;;;;5001435;28;20555;-91
2023/06/25 00:38:14;;;;;;;15.40;9.20;;;23.60;99.90;;;;;;5018095;28;20025;-91
2023/06/25 00:40:40;;;;;;;13.15;8.75;;;23.50;99.90;;;;;;5017516;28;20480;-91
2023/06/25 00:43:06;;;;;;;10.90;8.43;;;23.50;99.90;;;;;;5001718;28;20491;-91
2023/06/25 00:45:34;;;;;;;13.30;8.93;;;23.50;99.90;;;;;;5017816;28;20029;-91
2023/06/25 00:48:00;;;;;;;13.65;8.95;;;23.40;99.90;;;;;;5018081;28;20049;-91
2023/06/25 00:50:26;;;;;;;9.98;8.18;;;23.40;99.90;;;;;;5017072;28;20112;-91
2023/06/25 00:52:52;;;;;;;13.10;8.95;;;23.40;99.90;;;;;;5017634;28;20060;-91
2023/06/25 00:55:19;;;;;;;10.63;8.70;;;23.30;99.90;;;;;;5016954;28;20036;-91
2023/06/25 00:57:47;;;;;;;10.80;8.45;;;23.30;99.90;;;;;;5033568;28;20014;-91
2023/06/25 01:00:14;;;;;;;12.27;9.20;;;23.30;99.90;;;;;;5017126;28;20057;-91
2023/06/25 01:02:46;;;;;;;12.07;9.15;;;23.20;99.90;;;;;;5033402;28;20021;-92
2023/06/25 01:05:33;;;;;;;13.82;9.90;;;23.20;99.90;;;;;;5017068;28;20068;-91
2023/06/25 01:08:03;;;;;;;10.07;8.90;;;23.20;99.90;;;;;;5033309;28;20411;-91
2023/06/25 01:10:29;;;;;;;12.35;10.00;;;23.20;99.90;;;;;;5033380;28;20024;-91
2023/06/25 01:12:56;;;;;;;9.57;8.55;;;23.20;99.90;;;;;;5000782;28;20053;-91
2023/06/25 01:15:21;;;;;;;13.77;10.02;;;23.10;99.90;;;;;;5017194;28;20468;-91
2023/06/25 01:17:48;;;;;;;11.23;9.18;;;23.10;99.90;;;;;;5000795;28;20029;-93
2023/06/25 01:20:15;;;;;;;14.68;10.00;;;23.10;99.90;;;;;;5001776;28;20476;-92
2023/06/25 01:22:41;;;;;;;12.93;10.00;;;23.10;99.90;;;;;;4985151;28;20475;-94
2023/06/25 01:25:07;;;;;;;11.55;9.50;;;23.00;99.90;;;;;;5000943;28;20030;-93
2023/06/25 01:27:34;;;;;;;11.85;9.60;;;23.00;99.90;;;;;;5017112;28;20053;-93
2023/06/25 01:30:00;;;;;;;12.65;10.23;;;23.00;99.90;;;;;;5001751;28;20033;-93
2023/06/25 01:32:26;;;;;;;14.25;10.40;;;23.00;99.90;;;;;;5018670;28;20072;-93
2023/06/25 01:34:52;;;;;;;12.10;9.80;;;23.00;99.90;;;;;;4986121;28;20029;-91
2023/06/25 01:37:18;;;;;;;12.85;10.45;;;22.90;99.90;;;;;;5016636;28;20064;-91
2023/06/25 01:39:49;;;;;;;13.80;10.73;;;22.90;99.90;;;;;;5017028;28;20084;-91
2023/06/25 01:42:15;;;;;;;13.82;9.95;;;22.90;99.90;;;;;;5000370;28;20474;-90
2023/06/25 01:44:41;;;;;;;15.02;11.60;;;22.90;99.90;;;;;;5000183;28;20083;-90
2023/06/25 01:47:06;;;;;;;14.00;11.57;;;22.90;99.90;;;;;;5001259;28;20033;-90
2023/06/25 01:49:32;;;;;;;13.05;11.32;;;22.90;99.90;;;;;;5016342;28;20420;-90
2023/06/25 01:51:58;;;;;;;14.55;11.07;;;22.80;99.90;;;;;;5017922;28;20472;-90
2023/06/25 01:54:24;;;;;;;14.18;11.23;;;22.80;99.90;;;;;;5000032;28;20030;-89
2023/06/25 01:56:49;;;;;;;13.57;11.00;;;22.80;99.90;;;;;;5016280;28;20025;-92
2023/06/25 01:59:15;;;;;;;13.98;11.75;;;22.80;99.90;;;;;;5016391;28;20021;-92
2023/06/25 02:01:42;;;;;;;12.98;11.57;;;22.80;99.90;;;;;;4984050;28;20388;-92
2023/06/25 02:04:07;;;;;;;16.05;12.27;;;22.80;99.90;;;;;;5000166;28;20484;-93
2023/06/25 02:06:33;;;;;;;14.88;11.70;;;22.80;99.90;;;;;;4983913;28;20120;-93
2023/06/25 02:08:59;;;;;;;14.15;11.80;;;22.70;99.90;;;;;;5000029;28;20044;-92
2023/06/25 02:11:25;;;;;;;14.50;11.90;;;22.70;99.90;;;;;;5018333;28;20040;-93
2023/06/25 02:13:50;;;;;;;16.38;11.80;;;22.70;99.90;;;;;;5016819;28;20087;-92
2023/06/25 02:16:16;;;;;;;15.10;11.60;;;22.70;99.90;;;;;;5003491;28;20058;-92
2023/06/25 02:18:42;;;;;;;12.98;11.57;;;22.70;99.90;;;;;;5020806;28;20028;-93
2023/06/25 02:21:07;;;;;;;13.77;11.68;;;22.70;99.90;;;;;;5019822;28;20522;-93
2023/06/25 02:23:33;;;;;;;13.90;11.38;;;22.60;99.90;;;;;;5003460;28;20388;-93
2023/06/25 02:25:59;;;;;;;14.63;10.85;;;22.60;99.90;;;;;;5003295;28;20071;-91
2023/06/25 02:28:24;;;;;;;12.38;11.07;;;22.60;99.90;;;;;;5003220;28;20120;-91
2023/06/25 02:30:50;;;;;;;15.57;12.30;;;22.60;99.90;;;;;;5003455;28;20025;-91
2023/06/25 02:33:16;;;;;;;14.75;11.75;;;22.60;99.90;;;;;;5003235;28;20029;-91
2023/06/25 02:35:43;;;;;;;13.43;11.75;;;22.50;99.90;;;;;;5003385;28;20037;-91
2023/06/25 02:38:09;;;;;;;13.35;11.90;;;22.50;99.90;;;;;;4987632;28;20025;-91
2023/06/25 02:40:35;;;;;;;14.93;12.27;;;22.50;99.90;;;;;;5003119;28;20029;-91
2023/06/25 02:43:01;;;;;;;14.23;11.82;;;22.50;99.90;;;;;;4987071;28;20040;-92
2023/06/25 02:45:27;;;;;;;17.38;12.02;;;22.40;99.90;;;;;;5019341;28;20026;-93
2023/06/25 02:47:53;;;;;;;15.70;12.32;;;22.40;99.90;;;;;;5003224;28;20095;-92
2023/06/25 02:50:18;;;;;;;15.18;12.18;;;22.30;99.90;;;;;;5002862;28;20022;-91
2023/06/25 02:52:44;;;;;;;13.73;12.20;;;22.30;99.90;;;;;;5002783;28;20026;-92
2023/06/25 02:55:10;;;;;;;15.07;11.90;;;22.30;99.90;;;;;;5003053;28;20087;-92
2023/06/25 02:57:35;;;;;;;15.00;12.45;;;22.30;99.90;;;;;;5018812;28;20054;-91
2023/06/25 03:00:02;;;;;;;15.23;12.25;;;22.20;99.90;;;;;;5003348;28;20033;-94
2023/06/25 03:02:28;;;;;;;17.25;12.25;;;22.20;99.90;;;;;;5019010;28;20052;-93
2023/06/25 03:04:54;;;;;;;15.60;12.48;;;22.20;99.90;;;;;;4986721;28;20026;-93
2023/06/25 03:07:19;;;;;;;14.75;12.75;;;22.20;99.90;;;;;;5002633;28;20025;-93
2023/06/25 03:09:45;;;;;;;15.60;12.43;;;22.20;99.90;;;;;;4986346;28;20040;-93
2023/06/25 03:12:11;;;;;;;14.75;12.25;;;22.10;99.90;;;;;;5019649;28;20030;-93
2023/06/25 03:14:37;;;;;;;17.85;12.55;;;22.10;99.90;;;;;;5002508;28;20025;-93
2023/06/25 03:17:04;;;;;;;15.05;12.45;;;22.10;99.90;;;;;;5018727;28;20048;-93
2023/06/25 03:19:30;;;;;;;16.08;12.65;;;22.10;99.90;;;;;;5018664;28;20524;-92
2023/06/25 03:21:56;;;;;;;15.93;13.25;;;22.10;99.90;;;;;;5018425;28;20104;-91
2023/06/25 03:24:22;;;;;;;16.52;13.30;;;22.10;99.90;;;;;;5002040;28;20033;-92
2023/06/25 03:26:47;;;;;;;15.30;12.85;;;22.10;99.90;;;;;;4985417;28;20026;-92
2023/06/25 03:29:13;;;;;;;15.73;13.38;;;22.10;99.90;;;;;;5001918;28;20057;-92
2023/06/25 03:31:39;;;;;;;18.00;13.38;;;22.00;99.90;;;;;;5018431;28;20499;-91
2023/06/25 03:34:05;;;;;;;16.52;12.85;;;22.00;99.90;;;;;;5002202;28;20128;-91
2023/06/25 03:36:32;;;;;;;16.83;13.02;;;22.00;99.90;;;;;;4986206;28;20488;-91
2023/06/25 03:38:58;;;;;;;14.77;12.98;;;22.00;99.90;;;;;;5018456;28;20021;-91
2023/06/25 03:41:24;;;;;;;16.70;13.27;;;22.00;99.90;;;;;;4985845;28;20099;-93
2023/06/25 03:43:50;;;;;;;18.70;13.00;;;21.90;99.90;;;;;;5002061;28;20026;-92
2023/06/25 03:46:16;;;;;;;18.65;13.40;;;21.90;99.90;;;;;;5001636;28;20365;-93
2023/06/25 03:48:42;;;;;;;15.15;13.48;;;21.90;99.90;;;;;;5001801;28;20038;-91
2023/06/25 03:51:09;;;;;;;17.80;13.70;;;21.90;99.90;;;;;;5017857;28;20013;-92
2023/06/25 03:53:34;;;;;;;17.52;13.25;;;21.90;99.90;;;;;;5017879;28;20083;-91
2023/06/25 03:56:00;;;;;;;15.20;13.02;;;21.90;99.90;;;;;;5017963;28;20025;-92
2023/06/25 03:58:25;;;;;;;17.10;12.98;;;21.90;99.90;;;;;;4985843;28;20025;-93
2023/06/25 04:00:51;;;;;;;15.63;13.05;;;21.90;99.90;;;;;;4985588;28;20528;-92
2023/06/25 04:03:17;;;;;;;19.90;13.90;;;21.90;99.90;;;;;;4986431;28;20380;-91
2023/06/25 04:05:44;;;;;;;15.27;13.10;;;21.90;99.90;;;;;;4989291;28;20030;-92
2023/06/25 04:08:10;;;;;;;16.60;13.80;;;21.80;99.90;;;;;;5001938;28;20029;-92
2023/06/25 04:10:36;;;;;;;18.05;13.80;;;21.90;99.90;;;;;;5018348;28;20117;-91
2023/06/25 04:13:02;;;;;;;16.95;13.73;;;21.80;99.90;;;;;;5017604;28;20033;-92
2023/06/25 04:15:28;;;;;;;16.77;13.35;;;21.80;99.90;;;;;;5001468;28;20029;-91
2023/06/25 04:17:53;;;;;;;17.02;13.80;;;21.80;99.90;;;;;;5017464;28;20018;-92
2023/06/25 04:20:19;;;;;;;15.75;12.68;;;21.80;99.90;;;;;;4984963;28;20033;-92
2023/06/25 04:22:45;;;;;;;16.33;13.15;;;21.80;99.90;;;;;;5001352;28;20097;-91
2023/06/25 04:25:10;;;;;;;16.02;13.68;;;21.80;99.90;;;;;;4984934;28;20073;-92
2023/06/25 04:27:37;;;;;;;30.40;14.85;;;21.80;99.90;;;;;;5017036;28;20396;-93
2023/06/25 04:30:03;;;;;;;17.50;13.18;;;21.80;99.90;;;;;;5002017;28;20109;-92
2023/06/25 04:32:29;;;;;;;17.70;13.60;;;21.80;99.90;;;;;;5001082;28;20129;-92
2023/06/25 04:34:55;;;;;;;17.05;14.40;;;21.80;99.90;;;;;;4985126;28;20053;-92
2023/06/25 04:37:21;;;;;;;15.23;12.48;;;21.80;99.90;;;;;;4984965;28;20065;-93
2023/06/25 04:39:46;;;;;;;16.08;13.10;;;21.80;99.90;;;;;;5000759;28;20480;-92
2023/06/25 04:42:12;;;;;;;16.48;14.05;;;21.80;99.90;;;;;;5000879;28;20036;-93
2023/06/25 04:44:38;;;;;;;17.80;14.13;;;21.80;99.90;;;;;;4985018;28;20025;-93
2023/06/25 04:47:04;;;;;;;17.08;14.23;;;21.90;99.90;;;;;;4984448;28;20037;-92
2023/06/25 04:49:29;;;;;;;18.25;14.27;;;21.80;99.90;;;;;;5000876;28;20115;-93
2023/06/25 04:51:55;;;;;;;15.82;13.27;;;21.90;99.90;;;;;;5017155;28;20032;-93
2023/06/25 04:54:20;;;;;;;17.30;13.65;;;21.80;99.90;;;;;;5016977;28;20033;-93
2023/06/25 04:56:46;;;;;;;19.45;13.82;;;21.90;99.90;;;;;;4984481;28;20025;-91
2023/06/25 04:59:12;;;;;;;17.15;13.73;;;21.80;99.90;;;;;;5017178;28;20105;-91
2023/06/25 05:01:38;;;;;;;19.52;13.95;;;21.90;99.90;;;;;;5000662;28;20021;-93
2023/06/25 05:04:03;;;;;;;19.08;14.80;;;21.80;99.90;;;;;;5000635;28;20040;-93
2023/06/25 05:06:29;;;;;;;17.45;13.75;;;21.90;99.90;;;;;;5016930;28;20040;-92
2023/06/25 05:08:56;;;;;;;14.55;13.05;;;21.90;99.90;;;;;;5017540;28;20040;-91
2023/06/25 05:11:21;;;;;;;17.52;13.55;;;21.90;99.90;;;;;;5016950;28;20044;-91
2023/06/25 05:13:48;;;;;;;16.30;14.02;;;21.90;99.90;;;;;;5000234;28;20029;-91
2023/06/25 05:16:14;;;;;;;19.52;14.07;;;21.90;99.90;;;;;;5016906;28;20017;-91
2023/06/25 05:18:41;;;;;;;18.08;14.00;;;21.90;99.90;;;;;;5016774;28;20464;-92
2023/06/25 05:21:07;;;;;;;17.08;13.38;;;21.90;99.90;;;;;;5000635;28;20022;-92
2023/06/25 05:23:56;;;;;;;17.55;13.20;;;21.90;99.90;;;;;;4984171;28;20029;-93
2023/06/25 05:26:22;;;;;;;19.10;13.68;;;22.00;99.90;;;;;;5016719;28;20028;-93
2023/06/25 05:28:47;;;;;;;18.17;12.95;;;22.00;99.90;;;;;;4984063;28;20412;-93
2023/06/25 05:31:13;;;;;;;16.98;13.40;;;22.00;99.90;;;;;;4984943;28;20116;-94
2023/06/25 05:33:39;;;;;;;18.80;13.75;;;22.00;99.90;;;;;;4983928;28;20021;-93
2023/06/25 05:36:04;;;;;;;16.15;12.45;;;22.00;99.90;;;;;;5000245;28;20022;-94
2023/06/25 05:38:30;;;;;;;16.05;13.52;;;22.00;99.90;;;;;;5000184;28;20061;-93
2023/06/25 05:40:56;;;;;;;16.08;13.07;;;22.10;99.90;;;;;;4983958;28;20133;-94
2023/06/25 05:43:22;;;;;;;15.63;12.48;;;22.10;99.90;;;;;;5016684;28;20028;-91
2023/06/25 05:45:47;;;;;;;15.73;12.95;;;22.10;99.90;;;;;;5000138;28;20045;-94
2023/06/25 05:48:13;;;;;;;15.23;12.32;;;22.10;99.90;;;;;;4984324;28;20029;-94
2023/06/25 05:50:39;;;;;;;14.90;12.77;;;22.10;99.90;;;;;;5002946;28;20092;-93
2023/06/25 05:53:04;;;;;;;22.75;12.02;;;22.20;99.90;;;;;;4987918;28;20022;-93
2023/06/25 05:55:30;;;;;;;17.75;12.77;;;22.20;99.90;;;;;;5003587;28;20029;-91
2023/06/25 05:57:56;;;;;;;14.15;11.65;;;22.20;99.90;;;;;;5020581;28;20380;-91
2023/06/25 06:00:23;;;;;;;16.30;11.82;;;22.20;99.90;;;;;;5019938;28;20030;-91
2023/06/25 06:02:49;;;;;;;13.50;11.43;;;22.20;99.90;;;;;;5004411;28;20392;-93
2023/06/25 06:05:14;;;;;;;14.07;11.43;;;22.30;99.90;;;;;;5003917;28;20056;-95
2023/06/25 06:07:40;;;;;;;14.35;11.77;;;22.30;99.90;;;;;;5003952;28;20033;-93
2023/06/25 06:10:06;;;;;;;14.23;11.48;;;22.30;99.90;;;;;;5003781;28;20354;-95
2023/06/25 06:12:32;;;;;;;13.77;11.20;;;22.30;99.90;;;;;;4987493;28;20476;-94
2023/06/25 06:14:58;;;;;;;12.82;10.90;;;22.30;99.90;;;;;;5020033;28;20032;-94
2023/06/25 06:17:23;;;;;;;12.15;10.20;;;22.40;99.90;;;;;;5003581;28;20021;-92
2023/06/25 06:19:49;;;;;;;12.15;9.90;;;22.40;99.90;;;;;;5005025;28;20124;-92
2023/06/25 06:22:16;;;;;;;12.63;9.93;;;22.40;99.90;;;;;;5004227;28;20038;-92
2023/06/25 06:24:42;;;;;;;13.98;10.73;;;22.40;99.90;;;;;;4988641;28;20040;-91
2023/06/25 06:27:08;;;;;;;15.10;11.00;;;22.40;99.90;;;;;;5004293;28;20029;-92
2023/06/25 06:29:34;;;;;;;13.60;12.18;;;22.50;99.90;;;;;;5020708;28;20036;-92
2023/06/25 06:32:00;;;;;;;14.48;11.82;;;22.50;99.90;;;;;;5021184;28;20029;-92
2023/06/25 06:34:25;;;;;;;16.55;11.60;;;22.50;99.90;;;;;;5005412;28;20423;-93
2023/06/25 06:36:51;;;;;;;16.17;10.70;;;22.50;99.90;;;;;;4986926;28;20384;-95
2023/06/25 06:39:17;;;;;;;17.30;12.00;;;22.60;99.90;;;;;;4987586;28;20033;-94
2023/06/25 06:41:43;;;;;;;15.65;11.20;;;22.60;99.90;;;;;;5019430;28;20465;-94
2023/06/25 06:44:15;;;;;;;14.77;11.88;;;22.60;99.90;;;;;;5019250;28;20349;-94
2023/06/25 06:46:42;;;;;;;16.10;12.60;;;22.60;99.90;;;;;;5019209;28;20031;-93
2023/06/25 06:49:08;;;;;;;13.70;11.18;;;22.60;99.90;;;;;;5002801;28;20029;-94
2023/06/25 06:51:36;;;;;;;13.68;11.82;;;22.70;99.90;;;;;;5002989;28;20029;-94
2023/06/25 06:54:05;;;;;;;12.40;10.75;;;22.70;99.90;;;;;;5020177;28;20049;-93
2023/06/25 06:56:31;;;;;;;13.45;10.65;;;22.80;99.90;;;;;;5019177;28;20415;-93
2023/06/25 06:58:57;;;;;;;14.18;10.68;;;22.80;99.90;;;;;;5019386;28;20017;-94
2023/06/25 07:01:23;;;;;;;15.13;11.93;;;22.80;99.90;;;;;;5018150;28;20097;-94
2023/06/25 07:03:49;;;;;;;14.00;10.50;;;22.80;99.90;;;;;;5002900;28;20120;-94
2023/06/25 07:06:14;;;;;;;13.95;10.93;;;22.90;99.90;;;;;;4986854;28;20026;-94
2023/06/25 07:08:40;;;;;;;15.65;12.23;;;22.90;99.90;;;;;;5019167;28;20107;-93
2023/06/25 07:11:06;;;;;;;14.93;11.40;;;23.00;99.90;;;;;;4986953;28;20038;-94
2023/06/25 07:13:32;;;;;;;13.95;12.10;;;23.00;99.90;;;;;;5004553;28;20435;-92
2023/06/25 07:15:58;;;;;;;16.88;12.57;;;23.00;99.90;;;;;;5019542;28;20079;-93
2023/06/25 07:18:24;;;;;;;15.52;12.65;;;23.10;99.90;;;;;;5002681;28;20022;-94
2023/06/25 07:20:50;;;;;;;13.27;10.93;;;23.10;99.90;;;;;;5002927;28;20075;-93
2023/06/25 07:23:16;;;;;;;14.43;11.32;;;23.10;99.90;;;;;;5019132;28;20108;-93
2023/06/25 07:25:42;;;;;;;16.88;12.85;;;23.20;99.90;;;;;;5018709;28;20061;-91
2023/06/25 07:28:09;;;;;;;15.48;12.40;;;23.20;99.90;;;;;;5018181;28;20055;-91
2023/06/25 07:30:35;;;;;;;17.05;12.98;;;23.30;99.90;;;;;;5019670;28;20022;-93
2023/06/25 07:33:00;;;;;;;14.80;12.23;;;23.30;99.90;;;;;;5004307;28;20087;-92
2023/06/25 07:35:26;;;;;;;14.77;11.50;;;23.40;99.90;;;;;;4986241;28;20495;-92
2023/06/25 07:37:52;;;;;;;17.30;13.70;;;23.40;99.90;;;;;;5002797;28;20066;-91
2023/06/25 07:40:18;;;;;;;15.88;11.07;;;23.50;99.90;;;;;;5020147;28;20030;-93
2023/06/25 07:42:45;;;;;;;14.18;10.50;;;23.50;99.90;;;;;;5023450;28;20033;-91
2023/06/25 07:45:11;;;;;;;12.38;9.70;;;23.60;99.90;;;;;;5020157;28;20025;-90
2023/06/25 07:47:36;;;;;;;14.82;11.77;;;23.70;99.90;;;;;;5020515;28;20052;-90
2023/06/25 07:50:03;;;;;;;16.25;11.70;;;23.70;99.90;;;;;;4988282;28;20034;-90
2023/06/25 07:52:28;;;;;;;13.73;11.30;;;23.70;99.90;;;;;;5003965;28;20029;-91
2023/06/25 07:54:54;;;;;;;12.00;9.80;;;23.80;99.90;;;;;;4986111;28;20538;-90
2023/06/25 07:57:19;;;;;;;14.02;10.35;;;23.80;99.90;;;;;;5002588;28;20480;-91
2023/06/25 07:59:45;;;;;;;14.68;10.50;;;23.90;99.90;;;;;;4985565;28;20021;-92
2023/06/25 08:02:11;;;;;;;14.00;11.07;;;24.00;99.90;;;;;;4985245;28;20033;-92
2023/06/25 08:04:37;;;;;;;10.82;9.38;;;24.00;99.90;;;;;;5004419;28;20061;-90
2023/06/25 08:07:03;;;;;;;10.20;8.27;;;24.10;99.90;;;;;;5017913;28;20418;-90
2023/06/25 08:09:29;;;;;;;12.98;7.80;;;24.10;99.90;;;;;;5001318;28;20033;-90
2023/06/25 08:11:54;;;;;;;12.63;8.20;;;24.20;99.90;;;;;;4985012;28;20067;-92
2023/06/25 08:14:20;;;;;;;9.68;7.30;;;24.20;99.90;;;;;;5001392;28;20516;-92
2023/06/25 08:16:46;;;;;;;9.88;7.47;;;24.30;99.90;;;;;;5005528;28;20100;-92
2023/06/25 08:19:12;;;;;;;11.82;8.13;;;24.30;99.90;;;;;;4985254;28;20060;-91
2023/06/25 08:21:37;;;;;;;11.65;8.70;;;24.40;99.90;;;;;;5000980;28;20028;-91
2023/06/25 08:24:03;;;;;;;10.52;8.23;;;24.40;99.90;;;;;;5001309;28;20026;-91
2023/06/25 08:26:29;;;;;;;9.57;7.50;;;24.50;99.90;;;;;;5001414;28;20087;-91
2023/06/25 08:28:55;;;;;;;8.90;7.53;;;24.50;99.90;;;;;;5001002;28;20391;-90
2023/06/25 08:31:21;;;;;;;10.48;7.82;;;24.60;99.90;;;;;;4985131;28;20033;-93
2023/06/25 08:33:47;;;;;;;10.32;8.40;;;24.60;99.90;;;;;;5001138;28;20092;-93
2023/06/25 08:36:13;;;;;;;14.35;8.20;;;24.70;99.90;;;;;;5017554;28;20564;-93
2023/06/25 08:38:39;;;;;;;9.25;6.97;;;24.80;99.90;;;;;;5017561;28;20479;-94
2023/06/25 08:41:04;;;;;;;8.55;6.80;;;24.80;99.90;;;;;;5001384;28;20017;-93
2023/06/25 08:43:31;;;;;;;11.70;6.88;;;24.90;99.90;;;;;;5000910;28;20017;-93
2023/06/25 08:45:56;;;;;;;10.52;7.10;;;24.90;99.90;;;;;;5000920;28;20033;-93
2023/06/25 08:48:26;;;;;;;9.95;6.85;;;25.00;99.90;;;;;;5001156;28;20120;-92
2023/06/25 08:50:56;;;;;;;10.55;7.60;;;25.10;99.90;;;;;;5002102;28;20125;-91
2023/06/25 08:53:27;;;;;;;12.63;7.50;;;25.10;99.90;;;;;;5018326;28;20033;-91
2023/06/25 08:55:56;;;;;;;11.82;8.90;;;25.20;99.90;;;;;;5018144;28;20022;-92
2023/06/25 08:58:22;;;;;;;10.45;7.75;;;25.30;99.90;;;;;;5017734;28;20022;-91
2023/06/25 09:00:48;;;;;;;9.15;7.38;;;25.30;99.90;;;;;;5001910;28;20026;-92
2023/06/25 09:03:15;;;;;;;9.25;6.60;;;25.40;99.90;;;;;;5001412;28;20025;-91
2023/06/25 09:05:53;;;;;;;10.10;7.47;;;25.50;99.90;;;;;;5001802;28;20037;-92
2023/06/25 09:08:25;;;;;;;9.30;7.10;;;25.50;99.90;;;;;;5001138;28;20065;-92
2023/06/25 09:10:52;;;;;;;10.10;7.43;;;25.60;99.90;;;;;;5017160;28;20597;-93
2023/06/25 09:13:28;;;;;;;10.77;7.82;;;25.60;99.90;;;;;;5016854;28;20033;-91
2023/06/25 09:16:04;;;;;;;9.07;7.30;;;25.70;99.90;;;;;;5016668;28;20041;-90
2023/06/25 09:18:30;;;;;;;12.05;8.43;;;25.70;99.90;;;;;;5016938;28;20103;-90
2023/06/25 09:21:00;;;;;;;10.85;7.82;;;25.80;99.90;;;;;;5000324;28;20047;-90
2023/06/25 09:23:25;;;;;;;9.73;7.75;;;25.80;99.90;;;;;;5017283;28;20021;-91
2023/06/25 09:25:52;;;;;;;11.52;7.65;;;25.90;99.90;;;;;;4988145;28;20477;-93
2023/06/25 09:28:18;;;;;;;9.10;6.60;;;25.90;99.90;;;;;;5005418;28;20488;-93
2023/06/25 09:30:45;;;;;;;8.80;6.70;;;25.90;99.90;;;;;;5006577;28;20030;-94
2023/06/25 09:33:12;;;;;;;9.15;6.13;;;26.00;99.90;;;;;;5022288;28;20274;-93
2023/06/25 09:35:38;;;;;;;8.43;6.05;;;26.10;99.90;;;;;;5022518;28;20033;-93
2023/06/25 09:38:04;;;;;;;7.70;5.45;;;26.10;99.90;;;;;;4990140;28;20040;-90
2023/06/25 09:40:30;;;;;;;7.57;5.72;;;26.10;99.90;;;;;;5004870;28;20029;-90
2023/06/25 09:42:58;;;;;;;7.93;5.90;;;26.20;99.90;;;;;;5020198;28;20044;-89
2023/06/25 09:45:26;;;;;;;11.45;7.28;;;26.30;99.90;;;;;;5020524;28;20083;-90
2023/06/25 09:47:55;;;;;;;8.55;5.97;;;26.30;99.90;;;;;;5004109;28;20120;-90
2023/06/25 09:50:37;;;;;;;8.43;6.03;;;26.40;99.90;;;;;;5020469;28;20031;-90
2023/06/25 09:53:07;;;;;;;8.30;5.25;;;26.40;99.90;;;;;;5004851;28;20499;-90
2023/06/25 09:55:36;;;;;;;7.83;5.30;;;26.50;99.90;;;;;;5020420;28;20539;-91
2023/06/25 09:58:02;;;;;;;7.40;5.10;;;26.50;99.90;;;;;;5020602;28;20036;-92
2023/06/25 10:00:29;;;;;;;7.13;5.63;;;26.60;99.90;;;;;;5004828;28;20490;-93
2023/06/25 10:02:55;;;;;;;8.57;5.68;;;26.60;99.80;;;;;;5004400;28;20029;-93
2023/06/25 10:05:21;;;;;;;8.27;6.10;;;26.70;99.00;;;;;;5004217;28;20107;-94
2023/06/25 10:07:47;;;;;;;10.15;5.65;;;26.70;98.80;;;;;;5020965;28;20025;-94
2023/06/25 10:10:29;;;;;;;6.80;5.15;;;26.80;98.50;;;;;;5021260;28;20032;-95
2023/06/25 10:12:55;;;;;;;7.28;5.55;;;26.90;98.50;;;;;;5020552;28;20022;-91
2023/06/25 10:15:34;;;;;;;8.90;5.30;;;26.90;98.70;;;;;;5003375;28;20029;-91
2023/06/25 10:18:06;;;;;;;8.23;5.97;;;27.00;98.10;;;;;;5019883;28;20109;-91
2023/06/25 10:20:34;;;;;;;7.18;6.03;;;27.10;98.00;;;;;;5021332;28;20025;-95
2023/06/25 10:23:13;;;;;;;7.85;5.70;;;27.10;97.80;;;;;;5021158;28;20057;-90
2023/06/25 10:25:50;;;;;;;7.22;5.40;;;27.20;98.40;;;;;;5021437;28;20025;-91
2023/06/25 10:28:16;;;;;;;13.15;7.10;;;27.30;98.30;;;;;;5006004;28;20046;-94
2023/06/25 10:30:49;;;;;;;6.88;5.40;;;27.30;97.30;;;;;;5006703;28;20037;-94
2023/06/25 10:33:16;;;;;;;8.38;5.70;;;27.30;96.70;;;;;;5006419;28;20025;-90
2023/06/25 10:35:43;;;;;;;7.63;5.22;;;27.40;96.60;;;;;;5018841;28;20084;-90
2023/06/25 10:38:09;;;;;;;7.35;5.50;;;27.50;96.50;;;;;;5020186;28;20040;-91
2023/06/25 10:40:40;;;;;;;10.25;5.65;;;27.50;96.50;;;;;;5020587;28;20029;-90
2023/06/25 10:43:06;;;;;;;9.35;5.20;;;27.50;96.30;;;;;;5019912;28;20021;-92
2023/06/25 10:45:35;;;;;;;8.98;5.70;;;27.60;95.90;;;;;;5021252;28;20101;-90
2023/06/25 10:48:10;;;;;;;6.40;5.70;;;27.60;95.90;;;;;;5020767;28;20037;-90
2023/06/25 10:51:02;;;;;;;7.35;4.90;;;27.70;95.40;;;;;;5022155;28;20026;-92
2023/06/25 10:53:28;;;;;;;6.38;4.60;;;27.70;95.20;;;;;;5034582;28;20074;-92
2023/06/25 10:56:03;;;;;;;7.43;5.32;;;27.80;95.40;;;;;;5006123;28;20029;-91
2023/06/25 10:58:28;;;;;;;7.85;5.15;;;27.90;94.70;;;;;;5022129;28;20033;-91
2023/06/25 11:00:56;;;;;;;7.95;6.32;;;27.90;94.50;;;;;;5031176;28;20028;-92
2023/06/25 11:03:25;;;;;;;7.00;5.30;;;28.00;94.30;;;;;;5024218;28;20159;-93
2023/06/25 11:09:18;;;;;;;7.72;5.60;;;28.10;93.70;;;;;;5042786;28;20024;-92
2023/06/25 11:11:44;;;;;;;7.38;5.22;;;28.20;93.10;;;;;;5025150;28;20041;-92
2023/06/25 11:14:12;;;;;;;6.80;5.20;;;28.20;92.80;;;;;;5023587;28;20060;-94
2023/06/25 11:16:55;;;;;;;7.25;5.30;;;28.30;92.70;;;;;;5007073;28;20025;-92
2023/06/25 11:19:27;;;;;;;7.57;5.10;;;28.30;92.50;;;;;;5019431;28;20083;-91
2023/06/25 11:21:52;;;;;;;6.32;4.75;;;28.40;92.60;;;;;;5024186;28;20041;-91
2023/06/25 11:24:24;;;;;;;6.88;4.95;;;28.40;92.80;;;;;;5042456;28;20506;-91
2023/06/25 11:26:57;;;;;;;6.40;4.57;;;28.40;92.70;;;;;;5023431;28;20475;-92
2023/06/25 11:29:34;;;;;;;7.10;4.80;;;28.50;92.60;;;;;;5025753;28;20056;-92
2023/06/25 11:32:05;;;;;;;7.40;5.13;;;28.50;92.60;;;;;;5026225;28;20452;-92
2023/06/25 11:34:34;;;;;;;7.40;5.47;;;28.60;93.10;;;;;;5024196;28;20041;-94
2023/06/25 11:38:01;;;;;;;6.50;4.93;;;28.60;92.60;;;;;;5025717;28;20013;-94
2023/06/25 11:40:38;;;;;;;6.85;4.63;;;28.70;91.90;;;;;;5026775;28;20040;-95
2023/06/25 11:43:10;;;;;;;10.77;4.90;;;28.70;91.30;;;;;;5024831;28;20117;-94
2023/06/25 11:45:46;;;;;;;6.38;4.90;;;28.80;91.50;;;;;;5011634;28;20052;-93
2023/06/25 11:48:17;;;;;;;6.32;4.80;;;28.80;92.10;;;;;;5013142;28;20097;-94
2023/06/25 11:50:47;;;;;;;5.35;4.43;;;28.80;90.20;;;;;;5011591;28;20045;-94
2023/06/25 11:53:21;;;;;;;6.18;4.97;;;28.80;90.30;;;;;;5026064;28;20460;-94
2023/06/25 11:55:47;;;;;;;6.70;4.65;;;28.90;90.10;;;;;;5026193;28;20057;-93
2023/06/25 11:58:24;;;;;;;7.25;4.78;;;28.90;89.10;;;;;;5025423;28;20030;-94
2023/06/25 12:00:50;;;;;;;5.95;4.53;;;28.90;89.70;;;;;;5026162;28;20035;-94
2023/06/25 12:03:54;;;;;;;6.32;4.90;;;29.00;89.60;;;;;;5033232;28;20077;-92
2023/06/25 12:06:27;;;;;;;7.80;4.85;;;29.00;88.50;;;;;;5022663;28;20033;-93
2023/06/25 12:08:58;;;;;;;6.43;4.40;;;29.10;88.50;;;;;;5021659;28;20387;-94
2023/06/25 12:11:24;;;;;;;7.00;5.18;;;29.20;88.10;;;;;;5023808;28;20232;-93
2023/06/25 12:13:50;;;;;;;6.20;4.78;;;29.20;87.80;;;;;;5005539;28;20106;-92
2023/06/25 12:16:16;;;;;;;7.20;4.72;;;29.30;87.60;;;;;;5005326;28;20025;-91
2023/06/25 12:18:41;;;;;;;6.43;4.70;;;29.30;86.60;;;;;;5022039;28;20061;-91
2023/06/25 12:21:47;;;;;;;5.82;4.70;;;29.40;87.30;;;;;;5023750;28;20024;-92
2023/06/25 12:24:12;;;;;;;5.68;4.50;;;29.40;87.10;;;;;;5035475;28;20460;-90
2023/06/25 12:26:38;;;;;;;6.75;4.47;;;29.50;87.40;;;;;;5003447;28;20037;-91
2023/06/25 12:29:05;;;;;;;6.10;4.90;;;29.50;88.00;;;;;;4984399;28;20046;-91
2023/06/25 12:31:30;;;;;;;6.65;5.20;;;29.60;89.20;;;;;;5034769;28;20099;-91
2023/06/25 12:33:56;;;;;;;7.70;5.20;;;29.60;87.60;;;;;;4985021;28;20025;-91
2023/06/25 12:36:22;;;;;;;6.63;4.95;;;29.60;88.00;;;;;;4986631;28;20387;-90
2023/06/25 12:38:47;;;;;;;6.53;5.05;;;29.60;87.60;;;;;;5008691;28;20432;-92
2023/06/25 12:41:13;;;;;;;6.03;4.63;;;29.70;85.90;;;;;;5004293;28;20017;-90